Time;durP1;ratioP1;P1;durP2;ratioP2;P2;SDS_P1;SDS_P2;PMS_P1;PMS_P2;Temp;Humidity;BMP_temperature;BMP_pressure;BME280_temperature;BME280_humidity;BME280_pressure;Samples;Min_cycle;Max_cycle;Signal;HPM_P1;HPM_P2
2023/03/20 00:01:30;;;;;;;16.97;7.13;;;;;;;10.46;58.31;99471.75;6126648;23;20227;-88
2023/03/20 00:03:56;;;;;;;16.17;7.03;;;;;;;10.45;58.21;99470.03;6126656;23;20155;-88
2023/03/20 00:06:24;;;;;;;19.37;7.27;;;;;;;10.24;58.34;99465.81;6100582;23;20170;-88
2023/03/20 00:08:52;;;;;;;22.53;7.80;;;;;;;10.12;58.69;99465.47;6126178;23;20144;-88
2023/03/20 00:11:28;;;;;;;28.17;10.77;;;;;;;10.09;59.00;99463.84;6126150;23;20167;-88
2023/03/20 00:13:58;;;;;;;18.87;8.70;;;;;;;10.06;59.05;99457.91;6126493;23;20227;-88
2023/03/20 00:16:30;;;;;;;19.17;7.57;;;;;;;10.06;59.05;99457.91;6126205;23;20167;-88
2023/03/20 00:18:56;;;;;;;28.23;9.80;;;;;;;9.91;59.37;99451.56;6126106;23;20199;-88
2023/03/20 00:21:21;;;;;;;19.20;7.97;;;;;;;9.89;59.46;99456.03;6126094;23;20175;-88
2023/03/20 00:23:47;;;;;;;18.07;6.43;;;;;;;9.87;59.32;99455.25;6100436;23;20155;-87
2023/03/20 00:26:18;;;;;;;20.03;7.53;;;;;;;9.84;59.16;99452.78;6126070;23;20151;-88
2023/03/20 00:28:46;;;;;;;12.13;6.00;;;;;;;9.75;59.55;99445.31;6100831;23;20162;-88
2023/03/20 00:31:24;;;;;;;15.17;6.60;;;;;;;9.73;59.72;99450.63;6100469;23;20198;-88
2023/03/20 00:33:50;;;;;;;13.97;6.67;;;;;;;9.71;59.78;99446.38;6126073;23;20154;-88
2023/03/20 00:36:15;;;;;;;15.10;6.93;;;;;;;9.78;58.89;99440.81;6126275;23;20580;-88
2023/03/20 00:38:41;;;;;;;16.70;7.43;;;;;;;9.84;58.79;99440.53;6125944;23;20172;-88
2023/03/20 00:41:30;;;;;;;16.57;6.70;;;;;;;9.82;59.01;99434.53;6100354;23;20636;-88
2023/03/20 00:44:00;;;;;;;17.27;6.43;;;;;;;9.72;59.66;99440.25;6100447;23;20195;-88
2023/03/20 00:46:26;;;;;;;12.37;6.17;;;;;;;9.67;59.27;99429.13;6125959;23;20185;-88
2023/03/20 00:48:51;;;;;;;13.87;5.90;;;;;;;9.62;59.90;99433.69;6100230;23;20557;-87
2023/03/20 00:51:18;;;;;;;13.97;6.33;;;;;;;9.60;59.54;99430.28;6125900;23;20235;-87
2023/03/20 00:53:44;;;;;;;14.80;6.57;;;;;;;9.54;59.52;99433.19;6125918;23;20596;-87
2023/03/20 00:56:21;;;;;;;15.90;6.67;;;;;;;9.42;59.48;99433.72;6125930;23;20148;-87
2023/03/20 00:58:47;;;;;;;14.70;6.43;;;;;;;9.28;60.33;99419.47;6125794;23;20203;-88
2023/03/20 01:01:13;;;;;;;12.67;6.53;;;;;;;9.05;61.26;99419.59;6100324;23;20167;-88
2023/03/20 01:03:38;;;;;;;16.27;6.93;;;;;;;8.99;62.85;99417.22;6125846;23;20183;-88
2023/03/20 01:06:04;;;;;;;10.60;5.43;;;;;;;9.04;62.72;99412.66;6125858;23;20478;-88
2023/03/20 01:08:30;;;;;;;14.47;5.97;;;;;;;9.14;62.38;99415.75;6125872;23;20148;-88
2023/03/20 01:10:57;;;;;;;17.43;7.23;;;;;;;9.12;62.03;99413.19;6125812;23;20593;-87
2023/03/20 01:13:28;;;;;;;13.43;5.70;;;;;;;9.02;61.77;99411.88;6100352;23;20159;-87
2023/03/20 01:15:56;;;;;;;11.47;5.43;;;;;;;8.88;62.60;99410.75;6126129;23;20160;-88
2023/03/20 01:18:23;;;;;;;17.70;7.40;;;;;;;8.83;62.42;99410.09;6125702;23;20695;-87
2023/03/20 01:20:51;;;;;;;16.93;6.90;;;;;;;8.84;61.70;99410.00;6125787;23;20174;-87
2023/03/20 01:23:18;;;;;;;14.70;6.70;;;;;;;8.88;61.50;99400.28;6125808;23;20180;-87
2023/03/20 01:25:44;;;;;;;17.23;7.93;;;;;;;8.78;60.44;99398.97;6125771;23;20148;-87
2023/03/20 01:28:19;;;;;;;15.87;7.07;;;;;;;8.76;60.44;99393.78;6126123;23;20167;-87
2023/03/20 01:30:46;;;;;;;22.50;7.83;;;;;;;8.70;60.10;99396.66;6126416;23;20581;-87
2023/03/20 01:33:17;;;;;;;21.43;8.80;;;;;;;8.60;60.28;99400.56;6125730;23;20151;-87
2023/03/20 01:35:44;;;;;;;19.17;9.20;;;;;;;8.56;60.57;99404.22;6125745;23;20160;-87
2023/03/20 01:38:18;;;;;;;23.80;8.47;;;;;;;8.54;59.73;99406.06;6125950;23;20505;-87
2023/03/20 01:41:05;;;;;;;20.80;10.30;;;;;;;8.43;59.44;99410.84;6125777;23;20214;-87
2023/03/20 01:43:32;;;;;;;18.37;8.53;;;;;;;8.33;59.27;99404.28;6100076;23;20183;-87
2023/03/20 01:46:10;;;;;;;22.27;9.70;;;;;;;8.33;58.90;99409.50;6100723;23;20221;-87
2023/03/20 01:49:00;;;;;;;13.10;6.43;;;;;;;8.24;58.74;99405.44;6126112;23;20143;-87
2023/03/20 01:51:31;;;;;;;18.93;8.07;;;;;;;8.21;58.79;99417.75;6125737;23;20147;-87
2023/03/20 01:54:29;;;;;;;15.53;6.67;;;;;;;8.15;57.95;99418.84;6126756;23;20446;-87
2023/03/20 01:57:04;;;;;;;14.37;6.50;;;;;;;8.07;58.49;99413.91;6125631;23;20136;-87
2023/03/20 01:59:44;;;;;;;13.17;6.43;;;;;;;8.11;59.15;99405.97;6126009;23;20180;-86
2023/03/20 02:02:14;;;;;;;15.97;6.30;;;;;;;8.09;57.91;99403.44;6102374;23;20153;-86
2023/03/20 02:04:44;;;;;;;13.53;6.67;;;;;;;8.07;58.51;99406.09;6101852;23;20152;-86
2023/03/20 02:07:12;;;;;;;12.83;5.87;;;;;;;7.99;58.61;99404.69;6127344;23;20241;-87
2023/03/20 02:09:37;;;;;;;14.57;6.33;;;;;;;7.91;59.74;99402.34;6127347;23;20631;-86
2023/03/20 02:12:03;;;;;;;17.13;7.57;;;;;;;7.91;59.29;99407.56;6102137;23;20212;-86
2023/03/20 02:14:31;;;;;;;14.80;6.47;;;;;;;7.92;59.20;99414.50;6101689;23;20200;-86
2023/03/20 02:16:57;;;;;;;11.90;6.53;;;;;;;7.87;59.73;99405.16;6101902;23;20547;-86
2023/03/20 02:19:30;;;;;;;17.77;8.87;;;;;;;7.81;59.64;99405.34;6101626;23;20580;-86
2023/03/20 02:22:01;;;;;;;25.13;9.37;;;;;;;7.70;60.27;99408.41;6101634;23;20162;-86
2023/03/20 02:25:08;;;;;;;30.10;9.97;;;;;;;7.62;59.96;99396.53;6128154;23;20471;-86
2023/03/20 02:27:48;;;;;;;16.00;7.60;;;;;;;7.63;60.44;99401.69;6127891;23;20132;-86
2023/03/20 02:30:37;;;;;;;15.27;6.90;;;;;;;7.69;59.82;99398.84;6101594;23;20217;-86
2023/03/20 02:33:05;;;;;;;15.70;7.30;;;;;;;7.55;60.82;99387.25;6101539;23;20145;-86
2023/03/20 02:36:19;;;;;;;16.27;6.77;;;;;;;7.44;61.73;99385.84;6127467;23;20302;-86
2023/03/20 02:38:44;;;;;;;14.60;6.50;;;;;;;7.47;61.94;99391.88;5994242;23;20222;-86
2023/03/20 02:41:29;;;;;;;11.40;6.23;;;;;;;7.43;62.94;99380.69;6101333;23;20588;-86
2023/03/20 02:43:57;;;;;;;17.27;5.87;;;;;;;7.39;63.13;99386.91;6101599;23;20163;-86
2023/03/20 02:46:47;;;;;;;16.00;7.33;;;;;;;7.39;64.39;99381.69;6126898;23;20479;-86
2023/03/20 02:49:54;;;;;;;13.20;5.30;;;;;;;7.49;64.43;99382.22;6101372;23;20479;-87
2023/03/20 02:52:39;;;;;;;17.87;5.73;;;;;;;7.41;64.14;99379.91;6102368;23;20144;-87
2023/03/20 02:55:30;;;;;;;15.10;5.07;;;;;;;7.42;64.73;99387.66;6101269;23;20575;-87
2023/03/20 02:58:09;;;;;;;12.43;5.83;;;;;;;7.46;64.94;99388.41;6101181;23;20195;-86
2023/03/20 03:00:46;;;;;;;11.43;5.17;;;;;;;7.47;64.63;99390.09;6102673;23;20426;-87
2023/03/20 03:03:17;;;;;;;13.23;5.80;;;;;;;7.40;64.98;99386.00;6101721;23;20560;-87
2023/03/20 03:05:50;;;;;;;15.27;5.43;;;;;;;7.47;65.31;99389.25;6101857;23;20144;-86
2023/03/20 03:08:19;;;;;;;11.23;5.57;;;;;;;7.51;65.13;99386.47;6102161;23;20144;-87
2023/03/20 03:10:51;;;;;;;12.23;5.13;;;;;;;7.46;65.34;99383.19;6101045;23;20163;-87
2023/03/20 03:13:23;;;;;;;9.13;4.87;;;;;;;7.53;64.73;99382.06;6101138;23;20227;-87
2023/03/20 03:15:53;;;;;;;13.50;4.83;;;;;;;7.52;65.00;99382.94;6101119;23;20206;-87
2023/03/20 03:18:23;;;;;;;10.10;4.63;;;;;;;7.50;65.20;99382.16;6101258;23;20495;-87
2023/03/20 03:20:55;;;;;;;10.10;4.43;;;;;;;7.44;65.74;99375.41;6101027;23;20162;-87
2023/03/20 03:23:34;;;;;;;9.43;5.27;;;;;;;7.45;65.27;99368.44;6102035;23;20516;-87
2023/03/20 03:26:03;;;;;;;9.83;4.67;;;;;;;7.54;65.41;99373.34;6100853;23;20155;-87
2023/03/20 03:28:37;;;;;;;10.23;4.63;;;;;;;7.48;65.56;99373.56;6126596;23;20210;-87
2023/03/20 03:31:10;;;;;;;8.40;4.53;;;;;;;7.51;65.76;99375.19;6100931;23;20226;-87
2023/03/20 03:33:40;;;;;;;14.40;5.03;;;;;;;7.48;65.35;99376.16;6100975;23;20576;-87
2023/03/20 03:36:23;;;;;;;10.27;5.07;;;;;;;7.52;65.26;99375.13;6100848;23;20617;-87
2023/03/20 03:39:23;;;;;;;13.23;5.60;;;;;;;7.53;65.27;99382.06;6100747;23;20242;-87
2023/03/20 03:42:26;;;;;;;12.13;4.87;;;;;;;7.53;64.81;99386.41;6100786;23;20145;-86
2023/03/20 03:45:14;;;;;;;12.80;5.33;;;;;;;7.48;64.97;99377.91;6095570;23;20249;-87
2023/03/20 03:47:49;;;;;;;12.70;6.53;;;;;;;7.40;64.48;99379.03;6101858;23;20175;-87
2023/03/20 03:50:25;;;;;;;13.23;7.63;;;;;;;7.41;64.65;99385.13;6127431;23;20140;-87
2023/03/20 03:52:58;;;;;;;15.63;8.10;;;;;;;7.34;64.63;99376.66;6101192;23;20144;-87
2023/03/20 03:55:26;;;;;;;17.23;7.33;;;;;;;7.32;63.96;99382.81;6102024;23;20233;-87
2023/03/20 03:58:00;;;;;;;15.73;7.93;;;;;;;7.30;63.99;99382.91;6100626;23;20180;-87
2023/03/20 04:00:26;;;;;;;19.43;8.03;;;;;;;7.32;63.36;99381.06;6101741;23;20156;-87
2023/03/20 04:02:55;;;;;;;17.43;7.67;;;;;;;7.31;63.44;99378.53;6100674;23;20238;-87
2023/03/20 04:05:23;;;;;;;16.40;7.73;;;;;;;7.25;63.22;99378.75;6101055;23;20156;-87
2023/03/20 04:07:53;;;;;;;16.80;7.57;;;;;;;7.27;63.33;99380.38;6100631;23;20510;-87
2023/03/20 04:10:19;;;;;;;16.93;7.37;;;;;;;7.15;64.98;99377.38;6126263;23;20137;-87
2023/03/20 04:12:45;;;;;;;19.70;6.50;;;;;;;7.16;65.98;99386.88;6126891;23;20155;-87
2023/03/20 04:15:13;;;;;;;15.57;6.93;;;;;;;7.25;66.08;99389.16;6101056;23;20156;-87
2023/03/20 04:17:39;;;;;;;21.23;7.17;;;;;;;7.27;65.27;99382.13;6100491;23;20256;-87
2023/03/20 04:20:06;;;;;;;17.60;7.33;;;;;;;7.31;65.29;99386.34;6100479;23;20163;-86
2023/03/20 04:22:33;;;;;;;18.70;6.53;;;;;;;7.33;64.88;99387.16;6126844;23;20217;-86
2023/03/20 04:25:01;;;;;;;16.37;6.87;;;;;;;7.36;65.01;99387.03;6100187;23;20227;-87
2023/03/20 04:27:27;;;;;;;14.73;6.90;;;;;;;7.35;64.59;99395.75;6126050;23;20647;-86
2023/03/20 04:29:53;;;;;;;26.10;8.50;;;;;;;7.28;64.87;99391.69;6100877;23;20155;-86
2023/03/20 04:32:18;;;;;;;17.73;6.57;;;;;;;7.29;64.78;99382.94;6100464;23;20250;-86
2023/03/20 04:34:44;;;;;;;16.33;7.80;;;;;;;7.33;64.99;99393.22;6100903;23;20152;-86
2023/03/20 04:37:10;;;;;;;13.80;7.83;;;;;;;7.37;65.25;99389.59;6126292;23;20525;-86
2023/03/20 04:39:38;;;;;;;18.07;8.13;;;;;;;7.43;65.19;99388.50;6100785;23;20191;-86
2023/03/20 04:42:04;;;;;;;17.90;7.30;;;;;;;7.39;65.25;99381.69;6100892;23;20168;-87
2023/03/20 04:44:30;;;;;;;20.97;7.53;;;;;;;7.42;64.76;99392.00;6101435;23;20471;-87
2023/03/20 04:46:56;;;;;;;19.13;8.27;;;;;;;7.37;64.17;99388.72;6100900;23;20160;-86
2023/03/20 04:49:22;;;;;;;22.10;6.73;;;;;;;7.41;64.10;99390.34;6100637;23;20151;-87
2023/03/20 04:51:48;;;;;;;14.57;6.67;;;;;;;7.43;64.52;99388.50;6098745;23;20163;-87
2023/03/20 04:54:13;;;;;;;13.63;6.40;;;;;;;7.43;64.21;99389.38;6101039;23;20156;-86
2023/03/20 04:56:38;;;;;;;15.27;6.47;;;;;;;7.45;63.92;99391.91;6125928;23;20153;-86
2023/03/20 04:59:04;;;;;;;13.23;7.00;;;;;;;7.49;64.20;99403.94;6126209;23;20202;-87
2023/03/20 05:01:30;;;;;;;19.43;6.97;;;;;;;7.59;64.17;99394.03;6100281;23;20242;-86
2023/03/20 05:03:59;;;;;;;17.73;6.93;;;;;;;7.69;64.08;99400.59;6126281;23;20152;-86
2023/03/20 05:06:26;;;;;;;15.13;7.13;;;;;;;7.74;63.63;99396.06;6100407;23;20186;-86
2023/03/20 05:08:51;;;;;;;16.33;7.87;;;;;;;7.82;63.40;99400.09;6125898;23;20148;-86
2023/03/20 05:11:17;;;;;;;16.50;7.47;;;;;;;7.85;63.43;99407.81;6101586;23;20208;-86
2023/03/20 05:13:42;;;;;;;15.00;6.47;;;;;;;7.86;63.21;99419.94;6126250;23;20160;-87
2023/03/20 05:16:08;;;;;;;21.87;8.03;;;;;;;7.91;63.59;99418.00;6125864;23;20243;-87
2023/03/20 05:18:33;;;;;;;23.83;9.33;;;;;;;7.96;63.47;99418.72;6100631;23;20688;-87
2023/03/20 05:21:00;;;;;;;22.17;9.50;;;;;;;8.03;63.29;99417.56;6100336;23;20480;-87
2023/03/20 05:23:25;;;;;;;18.43;8.80;;;;;;;8.07;63.62;99413.06;6100247;23;20296;-87
2023/03/20 05:25:51;;;;;;;19.43;8.63;;;;;;;7.95;63.97;99418.75;6100509;23;20205;-87
2023/03/20 05:28:16;;;;;;;23.47;9.47;;;;;;;8.03;64.38;99420.19;6100575;23;20153;-87
2023/03/20 05:30:42;;;;;;;23.07;8.73;;;;;;;8.25;64.22;99415.00;6100586;23;20167;-87
2023/03/20 05:33:07;;;;;;;21.00;9.63;;;;;;;8.75;63.89;99405.19;6100680;23;20460;-87
2023/03/20 05:35:32;;;;;;;20.10;9.10;;;;;;;9.38;63.15;99404.22;6100561;23;20156;-87
2023/03/20 05:37:58;;;;;;;19.10;8.97;;;;;;;9.82;61.56;99397.03;6102311;23;20186;-87
2023/03/20 05:40:24;;;;;;;23.27;10.33;;;;;;;10.02;60.39;99399.56;6102417;23;20240;-87
2023/03/20 05:42:50;;;;;;;22.37;10.03;;;;;;;10.24;59.17;99402.94;6101874;23;20198;-88
2023/03/20 05:45:16;;;;;;;22.80;8.90;;;;;;;10.79;58.76;99395.03;6127578;23;20158;-88
2023/03/20 05:47:41;;;;;;;17.80;8.17;;;;;;;11.47;55.94;99389.78;6128171;23;20152;-89
2023/03/20 05:50:07;;;;;;;14.47;7.23;;;;;;;12.13;53.58;99390.59;6127560;23;20639;-88
2023/03/20 05:52:33;;;;;;;14.63;8.23;;;;;;;12.44;52.28;99379.25;6127846;23;20151;-88
2023/03/20 05:54:58;;;;;;;17.43;7.20;;;;;;;12.92;51.60;99376.41;6101881;23;20227;-89
2023/03/20 05:57:24;;;;;;;11.17;6.43;;;;;;;13.52;49.91;99369.31;6101769;23;20215;-89
2023/03/20 05:59:49;;;;;;;12.97;5.70;;;;;;;14.13;48.40;99366.38;6127613;23;20172;-89
2023/03/20 06:02:15;;;;;;;10.27;5.23;;;;;;;14.60;46.60;99368.63;6101826;23;20239;-89
2023/03/20 06:04:40;;;;;;;12.27;5.53;;;;;;;15.14;45.97;99360.63;6101863;23;20157;-89
2023/03/20 06:07:06;;;;;;;11.17;4.83;;;;;;;15.62;45.67;99359.09;6128011;23;20153;-89
2023/03/20 06:09:32;;;;;;;10.03;4.93;;;;;;;16.35;44.57;99358.19;6127982;23;20158;-89
2023/03/20 06:11:58;;;;;;;8.40;4.47;;;;;;;17.03;41.77;99361.06;6127775;23;20243;-89
2023/03/20 06:14:24;;;;;;;8.17;4.13;;;;;;;17.89;40.36;99352.69;6101682;23;20242;-89
2023/03/20 06:16:50;;;;;;;12.50;5.90;;;;;;;18.58;38.69;99355.00;6101752;23;20156;-89
2023/03/20 06:19:15;;;;;;;13.47;6.33;;;;;;;18.99;38.46;99352.44;6127179;23;20511;-89
2023/03/20 06:21:41;;;;;;;14.03;6.23;;;;;;;19.30;37.95;99355.16;6127174;23;20159;-88
2023/03/20 06:24:06;;;;;;;13.03;7.60;;;;;;;19.98;36.00;99351.91;6127796;23;20223;-89
2023/03/20 06:26:32;;;;;;;13.60;6.57;;;;;;;20.70;35.07;99340.03;6127200;23;20533;-88
2023/03/20 06:28:57;;;;;;;10.30;5.80;;;;;;;21.60;34.10;99347.69;6127128;23;20584;-88
2023/03/20 06:31:23;;;;;;;10.47;5.60;;;;;;;22.57;32.44;99347.94;6101507;23;20184;-88
2023/03/20 06:33:48;;;;;;;13.90;5.93;;;;;;;23.39;31.28;99342.38;6101957;23;20159;-88
2023/03/20 06:36:14;;;;;;;11.57;5.90;;;;;;;23.96;30.28;99340.03;6127243;23;20163;-88
2023/03/20 06:38:40;;;;;;;10.43;5.90;;;;;;;24.36;30.23;99345.59;6127068;23;20315;-88
2023/03/20 06:41:05;;;;;;;10.87;5.33;;;;;;;24.73;29.21;99343.34;6101564;23;20167;-88
2023/03/20 06:43:31;;;;;;;11.73;5.80;;;;;;;24.90;28.38;99353.09;6127046;23;20164;-88
2023/03/20 06:45:56;;;;;;;12.07;4.33;;;;;;;24.84;28.56;99359.09;6127360;23;20215;-88
2023/03/20 06:48:22;;;;;;;8.63;5.03;;;;;;;24.82;29.05;99357.59;6101322;23;20234;-88
2023/03/20 06:50:49;;;;;;;10.80;5.90;;;;;;;24.79;28.49;99356.09;6101387;23;20585;-88
2023/03/20 06:53:15;;;;;;;15.57;6.87;;;;;;;24.43;29.54;99352.81;6127040;23;20152;-89
2023/03/20 06:55:42;;;;;;;13.13;6.80;;;;;;;24.49;28.52;99343.28;6127300;23;20206;-89
2023/03/20 06:58:07;;;;;;;16.30;7.20;;;;;;;24.22;28.98;99354.22;6126886;23;20176;-89
2023/03/20 07:00:33;;;;;;;13.03;7.00;;;;;;;24.41;28.77;99351.28;6127037;23;20159;-90
2023/03/20 07:02:58;;;;;;;13.17;7.60;;;;;;;24.33;29.10;99362.81;6127086;23;20175;-90
2023/03/20 07:05:27;;;;;;;19.20;6.70;;;;;;;24.30;29.48;99351.56;6126991;23;20243;-91
2023/03/20 07:08:00;;;;;;;13.33;6.33;;;;;;;24.22;29.39;99354.22;6127064;23;20159;-91
2023/03/20 07:10:27;;;;;;;18.87;6.73;;;;;;;23.84;30.25;99356.38;6127774;23;20594;-90
2023/03/20 07:12:55;;;;;;;12.57;6.67;;;;;;;23.74;30.00;99350.28;6127123;23;20144;-91
2023/03/20 07:15:34;;;;;;;;;;;;;;;;;;;;;
2023/03/20 07:18:23;;;;;;;18.33;7.20;;;;;;;23.58;30.11;99344.84;6127650;23;20251;-91
2023/03/20 07:20:51;;;;;;;26.17;8.60;;;;;;;23.10;30.21;99352.47;6101928;23;20144;-91
2023/03/20 07:23:16;;;;;;;16.80;7.70;;;;;;;22.68;32.04;99346.06;6101779;23;20226;-91
2023/03/20 07:25:42;;;;;;;13.20;7.30;;;;;;;22.64;32.06;99343.69;6101410;23;20172;-92
2023/03/20 07:28:07;;;;;;;12.07;5.70;;;;;;;22.15;32.60;99346.78;6128036;23;20154;-90
2023/03/20 07:30:33;;;;;;;13.90;6.57;;;;;;;21.93;32.99;99352.53;6101988;23;20167;-90
2023/03/20 07:32:58;;;;;;;14.60;7.30;;;;;;;21.59;33.09;99343.34;6126852;23;20230;-90
2023/03/20 07:35:24;;;;;;;12.90;7.00;;;;;;;21.49;34.42;99343.34;6101228;23;20548;-90
2023/03/20 07:37:49;;;;;;;12.57;6.50;;;;;;;21.44;33.60;99329.63;6126674;23;20267;-90
2023/03/20 07:40:15;;;;;;;15.03;7.73;;;;;;;21.37;33.83;99336.53;6126783;23;20158;-91
2023/03/20 07:42:41;;;;;;;18.40;7.20;;;;;;;21.15;34.66;99327.00;6101011;23;20176;-90
2023/03/20 07:45:08;;;;;;;12.60;6.80;;;;;;;20.68;35.65;99336.69;6126639;23;20592;-90
2023/03/20 07:47:34;;;;;;;14.23;7.17;;;;;;;20.22;36.92;99331.97;6101128;23;20562;-90
2023/03/20 07:50:00;;;;;;;22.83;9.43;;;;;;;19.53;36.87;99343.44;6126988;23;20148;-90
2023/03/20 07:52:25;;;;;;;18.43;9.10;;;;;;;19.23;38.81;99335.41;6127213;23;20206;-90
2023/03/20 07:54:51;;;;;;;19.07;8.47;;;;;;;19.22;38.28;99333.72;6100934;23;20156;-90
2023/03/20 07:57:17;;;;;;;16.10;8.47;;;;;;;19.07;39.48;99327.03;6126440;23;20183;-90
2023/03/20 07:59:42;;;;;;;17.83;8.17;;;;;;;19.07;39.77;99332.34;6126145;23;20185;-90
2023/03/20 08:02:14;;;;;;;30.23;11.23;;;;;;;18.95;38.97;99327.09;6126652;23;20151;-90
2023/03/20 08:04:40;;;;;;;30.77;11.73;;;;;;;18.66;40.70;99319.84;6100869;23;20175;-90
2023/03/20 08:07:05;;;;;;;37.57;11.23;;;;;;;18.54;40.60;99331.50;6127135;23;20516;-89
2023/03/20 08:09:31;;;;;;;22.07;8.87;;;;;;;18.48;41.34;99330.19;6126436;23;20148;-89
2023/03/20 08:11:56;;;;;;;20.93;10.50;;;;;;;18.43;41.66;99335.84;6126747;23;20607;-89
2023/03/20 08:14:22;;;;;;;16.73;8.83;;;;;;;18.54;42.26;99324.38;6126667;23;20162;-90
2023/03/20 08:16:47;;;;;;;18.60;9.63;;;;;;;18.59;41.17;99319.53;6126708;23;20148;-90
2023/03/20 08:19:13;;;;;;;20.63;9.17;;;;;;;18.59;42.06;99331.94;6100678;23;20263;-90
2023/03/20 08:21:39;;;;;;;13.93;7.93;;;;;;;18.63;41.86;99326.25;6126356;23;20151;-90
2023/03/20 08:24:05;;;;;;;14.37;7.87;;;;;;;18.69;42.45;99328.41;6100739;23;20156;-90
2023/03/20 08:26:30;;;;;;;15.63;8.27;;;;;;;18.61;42.23;99324.69;6126588;23;20152;-90
2023/03/20 08:28:56;;;;;;;17.53;9.37;;;;;;;18.73;42.45;99329.88;6126363;23;20476;-90
2023/03/20 08:31:21;;;;;;;18.93;9.07;;;;;;;18.87;41.37;99324.22;6100737;23;20163;-90
2023/03/20 08:33:47;;;;;;;16.73;8.13;;;;;;;18.90;42.23;99318.66;6126661;23;20151;-90
2023/03/20 08:36:14;;;;;;;18.27;8.33;;;;;;;18.91;42.03;99328.34;6126214;23;20583;-93
2023/03/20 08:38:40;;;;;;;13.90;7.13;;;;;;;18.69;42.24;99332.88;6100619;23;20190;-90
2023/03/20 08:41:06;;;;;;;14.37;7.17;;;;;;;19.20;42.59;99330.34;6126215;23;20155;-90
2023/03/20 08:43:32;;;;;;;15.03;7.73;;;;;;;19.53;42.30;99322.16;6126096;23;20257;-90
2023/03/20 08:45:57;;;;;;;11.90;5.17;;;;;;;19.79;39.84;99320.75;6126091;23;20148;-90
2023/03/20 08:48:24;;;;;;;10.23;4.70;;;;;;;19.95;38.59;99320.25;6126527;23;20159;-90
2023/03/20 08:50:50;;;;;;;9.17;5.00;;;;;;;20.16;38.61;99315.69;6100758;23;20155;-91
2023/03/20 08:53:15;;;;;;;10.83;4.63;;;;;;;20.33;38.85;99314.22;6126556;23;20203;-90
2023/03/20 08:55:46;;;;;;;11.67;5.43;;;;;;;20.23;39.06;99309.69;6126893;23;20214;-91
2023/03/20 08:58:12;;;;;;;9.00;5.13;;;;;;;20.47;38.18;99311.13;6100692;23;20176;-92
2023/03/20 09:00:37;;;;;;;10.10;5.03;;;;;;;20.23;38.16;99317.69;6100723;23;20163;-90
2023/03/20 09:03:03;;;;;;;12.03;5.00;;;;;;;20.40;37.44;99305.53;6100657;23;20474;-91
2023/03/20 09:05:28;;;;;;;10.43;4.80;;;;;;;20.50;38.18;99305.53;6100692;23;20166;-90
2023/03/20 09:07:54;;;;;;;9.63;4.90;;;;;;;20.19;37.58;99305.63;6127349;23;20190;-91
2023/03/20 09:10:19;;;;;;;8.47;4.50;;;;;;;20.08;38.26;99304.88;6101456;23;20162;-92
2023/03/20 09:12:45;;;;;;;9.33;5.00;;;;;;;20.21;38.14;99305.47;6128261;23;20151;-91
2023/03/20 09:15:11;;;;;;;9.83;5.03;;;;;;;20.41;38.54;99306.38;6102667;23;20155;-92
2023/03/20 09:17:36;;;;;;;11.03;5.07;;;;;;;20.17;36.98;99299.59;6102694;23;20337;-91
2023/03/20 09:20:02;;;;;;;14.70;4.87;;;;;;;20.39;38.69;99298.53;6128636;23;20158;-90
2023/03/20 09:22:28;;;;;;;9.90;4.80;;;;;;;20.46;36.53;99297.00;6103172;23;20568;-92
2023/03/20 09:24:53;;;;;;;8.63;4.27;;;;;;;20.59;36.85;99294.91;6128143;23;20148;-91
2023/03/20 09:27:19;;;;;;;10.40;4.73;;;;;;;20.64;36.60;99291.81;6128175;23;20178;-91
2023/03/20 09:29:45;;;;;;;10.67;4.77;;;;;;;20.55;35.99;99295.31;6103092;23;20191;-92
2023/03/20 09:32:12;;;;;;;13.53;5.50;;;;;;;20.13;37.66;99295.50;6103183;23;20587;-92
2023/03/20 09:34:37;;;;;;;11.73;5.00;;;;;;;20.25;37.63;99290.09;6102935;23;20348;-91
2023/03/20 09:37:03;;;;;;;8.47;4.53;;;;;;;20.23;36.89;99291.06;6102788;23;20593;-91
2023/03/20 09:39:29;;;;;;;11.90;4.83;;;;;;;20.23;36.95;99285.75;6128064;23;20180;-92
2023/03/20 09:41:59;;;;;;;8.27;4.67;;;;;;;20.17;37.15;99286.28;6127817;23;20564;-92
2023/03/20 09:44:44;;;;;;;9.73;4.60;;;;;;;20.47;37.76;99276.53;6102712;23;20199;-91
2023/03/20 09:47:13;;;;;;;7.63;3.73;;;;;;;20.58;37.13;99276.38;6102600;23;20155;-91
2023/03/20 09:49:52;;;;;;;8.60;4.40;;;;;;;20.72;36.44;99266.16;6102528;23;20163;-92
2023/03/20 09:52:23;;;;;;;6.60;3.80;;;;;;;21.01;37.19;99267.94;6102592;23;20243;-92
2023/03/20 09:55:05;;;;;;;6.60;3.43;;;;;;;21.12;35.71;99271.31;6128252;23;20148;-91
2023/03/20 09:57:42;;;;;;;8.50;4.00;;;;;;;20.97;35.53;99272.72;6102464;23;20175;-91
2023/03/20 10:00:23;;;;;;;7.77;3.90;;;;;;;20.96;35.33;99264.88;6102492;23;20168;-91
2023/03/20 10:02:57;;;;;;;8.43;4.67;;;;;;;20.82;36.04;99255.50;6102581;23;20564;-91
2023/03/20 10:05:26;;;;;;;8.70;3.90;;;;;;;21.25;35.74;99258.50;6128426;23;20136;-91
2023/03/20 10:08:00;;;;;;;9.27;4.63;;;;;;;21.42;34.86;99257.75;6102374;23;20163;-91
2023/03/20 10:10:45;;;;;;;8.07;4.47;;;;;;;20.87;35.71;99250.56;6102460;23;20140;-91
2023/03/20 10:13:26;;;;;;;11.80;4.37;;;;;;;20.87;36.83;99250.56;6102397;23;20160;-90
2023/03/20 10:16:16;;;;;;;6.97;4.03;;;;;;;21.22;34.87;99240.16;6128203;23;20655;-92
2023/03/20 10:19:18;;;;;;;12.97;4.00;;;;;;;21.12;34.91;99233.16;6127690;23;20266;-91
2023/03/20 10:22:21;;;;;;;8.40;3.50;;;;;;;20.94;36.77;99246.34;6101904;23;20151;-91
2023/03/20 10:25:06;;;;;;;7.60;4.10;;;;;;;21.29;35.48;99224.41;6102302;23;20155;-92
2023/03/20 10:27:58;;;;;;;8.17;4.17;;;;;;;22.07;36.16;99220.38;6128066;23;20158;-91
2023/03/20 10:30:46;;;;;;;7.90;3.80;;;;;;;22.42;33.46;99210.56;6102303;23;20148;-94
2023/03/20 10:33:39;;;;;;;8.20;4.53;;;;;;;22.22;33.90;99210.88;6102284;23;20152;-92
2023/03/20 10:36:29;;;;;;;9.77;5.10;;;;;;;22.23;34.91;99196.50;6101883;23;20536;-91
2023/03/20 10:39:30;;;;;;;11.00;4.57;;;;;;;22.18;35.18;99202.31;6102015;23;20179;-93
2023/03/20 10:42:00;;;;;;;9.13;4.50;;;;;;;22.30;34.37;99195.72;6060160;23;20159;-90
2023/03/20 10:44:34;;;;;;;12.50;4.00;;;;;;;22.30;34.60;99195.72;6101908;23;20493;-91
2023/03/20 10:47:02;;;;;;;12.13;4.73;;;;;;;22.63;34.13;99192.41;6101996;23;20210;-91
2023/03/20 10:49:45;;;;;;;7.70;4.37;;;;;;;22.79;33.56;99188.16;6101880;23;20167;-91
2023/03/20 10:52:16;;;;;;;7.33;4.67;;;;;;;22.38;33.78;99176.31;6127791;23;20206;-92
2023/03/20 10:55:20;;;;;;;8.60;4.63;;;;;;;22.61;33.75;99177.47;6101874;23;20166;-92
2023/03/20 10:57:51;;;;;;;8.27;4.17;;;;;;;22.83;33.14;99176.16;6101782;23;20187;-92
2023/03/20 11:00:23;;;;;;;9.27;4.00;;;;;;;22.97;34.30;99170.22;6102566;23;20197;-93
2023/03/20 11:02:49;;;;;;;10.87;4.60;;;;;;;23.26;33.88;99178.75;6101873;23;20160;-92
2023/03/20 11:05:27;;;;;;;9.17;4.50;;;;;;;23.37;33.65;99175.84;6127757;23;20152;-92
2023/03/20 11:08:08;;;;;;;8.73;4.20;;;;;;;23.77;32.47;99162.59;6102356;23;20536;-92
2023/03/20 11:10:35;;;;;;;10.23;4.27;;;;;;;23.88;31.21;99155.25;6102006;23;20227;-92
2023/03/20 11:13:15;;;;;;;7.33;3.93;;;;;;;23.70;32.68;99150.88;6127615;23;20606;-92
2023/03/20 11:15:41;;;;;;;8.17;4.40;;;;;;;23.84;32.45;99147.56;6101956;23;20242;-92
2023/03/20 11:18:12;;;;;;;9.13;4.40;;;;;;;24.01;31.02;99142.22;6101811;23;20266;-91
2023/03/20 11:20:50;;;;;;;8.80;4.27;;;;;;;24.23;31.35;99137.09;6102338;23;20148;-92
2023/03/20 11:23:19;;;;;;;7.90;4.07;;;;;;;24.35;31.77;99145.63;6127832;23;20136;-92
2023/03/20 11:26:03;;;;;;;9.83;4.47;;;;;;;24.28;30.98;99131.22;6127772;23;20152;-92
2023/03/20 11:28:31;;;;;;;7.40;4.20;;;;;;;24.13;31.53;99124.88;6101552;23;20234;-91
2023/03/20 11:31:25;;;;;;;7.33;4.13;;;;;;;24.34;30.05;99127.88;6101724;23;20192;-93
2023/03/20 11:34:03;;;;;;;7.47;3.70;;;;;;;24.01;30.91;99115.44;6081641;23;20172;-91
2023/03/20 11:36:31;;;;;;;6.63;3.37;;;;;;;24.22;30.74;99110.44;6101510;23;20167;-92
2023/03/20 11:39:06;;;;;;;6.20;3.57;;;;;;;24.28;30.88;99112.47;6101390;23;20184;-93
2023/03/20 11:41:32;;;;;;;6.87;3.90;;;;;;;23.92;31.54;99105.72;6101606;23;20174;-91
2023/03/20 11:43:57;;;;;;;7.73;3.90;;;;;;;24.15;31.39;99102.25;6101341;23;20167;-92
2023/03/20 11:46:24;;;;;;;5.80;3.07;;;;;;;24.38;30.96;99097.06;6127726;23;20170;-92
2023/03/20 11:49:19;;;;;;;7.60;3.73;;;;;;;24.39;30.00;99101.41;6101477;23;20493;-92